sensor_id;sensor_type;location;lat;lon;timestamp;P1;durP1;ratioP1;P2;durP2;ratioP2
25868;SDS011;13688;53.154;18.136;2023-08-20T00:01:57;17.12;;;13.50;;
25868;SDS011;13688;53.154;18.136;2023-08-20T00:07:23;14.25;;;12.75;;
25868;SDS011;13688;53.154;18.136;2023-08-20T00:12:47;14.45;;;12.88;;
25868;SDS011;13688;53.154;18.136;2023-08-20T00:18:09;14.55;;;12.63;;
25868;SDS011;13688;53.154;18.136;2023-08-20T00:23:32;15.25;;;13.65;;
25868;SDS011;13688;53.154;18.136;2023-08-20T00:28:55;17.95;;;15.25;;
25868;SDS011;13688;53.154;18.136;2023-08-20T00:34:17;17.60;;;14.90;;
25868;SDS011;13688;53.154;18.136;2023-08-20T00:39:40;15.98;;;14.33;;
25868;SDS011;13688;53.154;18.136;2023-08-20T00:45:03;15.55;;;13.95;;
25868;SDS011;13688;53.154;18.136;2023-08-20T00:50:25;16.37;;;14.68;;
25868;SDS011;13688;53.154;18.136;2023-08-20T00:55:49;14.65;;;13.20;;
25868;SDS011;13688;53.154;18.136;2023-08-20T01:01:12;16.80;;;14.85;;
25868;SDS011;13688;53.154;18.136;2023-08-20T01:12:20;16.40;;;14.68;;
25868;SDS011;13688;53.154;18.136;2023-08-20T01:17:43;20.25;;;15.50;;
25868;SDS011;13688;53.154;18.136;2023-08-20T01:28:44;19.37;;;15.87;;
25868;SDS011;13688;53.154;18.136;2023-08-20T01:34:08;19.67;;;15.88;;
25868;SDS011;13688;53.154;18.136;2023-08-20T01:39:31;17.57;;;15.80;;
25868;SDS011;13688;53.154;18.136;2023-08-20T01:44:53;17.75;;;16.05;;
25868;SDS011;13688;53.154;18.136;2023-08-20T01:50:16;21.87;;;16.75;;
25868;SDS011;13688;53.154;18.136;2023-08-20T01:55:39;20.77;;;16.75;;
25868;SDS011;13688;53.154;18.136;2023-08-20T02:01:02;19.90;;;17.17;;
25868;SDS011;13688;53.154;18.136;2023-08-20T02:06:24;19.70;;;17.42;;
25868;SDS011;13688;53.154;18.136;2023-08-20T02:11:47;18.50;;;16.65;;
25868;SDS011;13688;53.154;18.136;2023-08-20T02:17:09;22.17;;;18.27;;
25868;SDS011;13688;53.154;18.136;2023-08-20T02:22:32;19.35;;;17.35;;
25868;SDS011;13688;53.154;18.136;2023-08-20T02:27:54;20.55;;;18.17;;
25868;SDS011;13688;53.154;18.136;2023-08-20T02:33:16;24.35;;;18.05;;
25868;SDS011;13688;53.154;18.136;2023-08-20T02:38:39;19.55;;;17.05;;
25868;SDS011;13688;53.154;18.136;2023-08-20T02:44:02;20.65;;;18.48;;
25868;SDS011;13688;53.154;18.136;2023-08-20T02:49:25;20.35;;;18.25;;
25868;SDS011;13688;53.154;18.136;2023-08-20T02:54:47;20.08;;;17.73;;
25868;SDS011;13688;53.154;18.136;2023-08-20T03:00:10;20.85;;;18.50;;
25868;SDS011;13688;53.154;18.136;2023-08-20T03:05:33;21.77;;;18.17;;
25868;SDS011;13688;53.154;18.136;2023-08-20T03:10:56;20.02;;;17.95;;
25868;SDS011;13688;53.154;18.136;2023-08-20T03:16:18;20.00;;;17.92;;
25868;SDS011;13688;53.154;18.136;2023-08-20T03:21:41;21.87;;;19.57;;
25868;SDS011;13688;53.154;18.136;2023-08-20T03:27:04;19.67;;;17.67;;
25868;SDS011;13688;53.154;18.136;2023-08-20T03:32:27;23.75;;;19.77;;
25868;SDS011;13688;53.154;18.136;2023-08-20T03:37:50;22.70;;;19.73;;
25868;SDS011;13688;53.154;18.136;2023-08-20T03:43:12;23.57;;;19.45;;
25868;SDS011;13688;53.154;18.136;2023-08-20T03:48:35;23.15;;;20.70;;
25868;SDS011;13688;53.154;18.136;2023-08-20T03:53:57;21.95;;;19.50;;
25868;SDS011;13688;53.154;18.136;2023-08-20T03:59:20;21.37;;;19.00;;
25868;SDS011;13688;53.154;18.136;2023-08-20T04:04:43;24.65;;;20.45;;
25868;SDS011;13688;53.154;18.136;2023-08-20T04:10:08;19.73;;;17.70;;
25868;SDS011;13688;53.154;18.136;2023-08-20T04:15:31;21.10;;;18.65;;
25868;SDS011;13688;53.154;18.136;2023-08-20T04:20:54;22.48;;;19.92;;
25868;SDS011;13688;53.154;18.136;2023-08-20T04:26:17;22.15;;;19.87;;
25868;SDS011;13688;53.154;18.136;2023-08-20T04:31:39;23.45;;;19.77;;
25868;SDS011;13688;53.154;18.136;2023-08-20T04:37:01;23.47;;;19.55;;
25868;SDS011;13688;53.154;18.136;2023-08-20T04:42:24;21.70;;;19.35;;
25868;SDS011;13688;53.154;18.136;2023-08-20T04:47:47;22.77;;;19.80;;
25868;SDS011;13688;53.154;18.136;2023-08-20T04:53:10;21.12;;;18.92;;
25868;SDS011;13688;53.154;18.136;2023-08-20T04:58:32;23.00;;;18.90;;
25868;SDS011;13688;53.154;18.136;2023-08-20T05:03:54;19.77;;;17.57;;
25868;SDS011;13688;53.154;18.136;2023-08-20T05:09:17;32.70;;;19.15;;
25868;SDS011;13688;53.154;18.136;2023-08-20T05:14:39;22.40;;;19.60;;
25868;SDS011;13688;53.154;18.136;2023-08-20T05:20:01;21.45;;;19.15;;
25868;SDS011;13688;53.154;18.136;2023-08-20T05:25:24;21.73;;;19.42;;
25868;SDS011;13688;53.154;18.136;2023-08-20T05:30:56;20.57;;;18.55;;
25868;SDS011;13688;53.154;18.136;2023-08-20T05:36:20;21.45;;;19.15;;
25868;SDS011;13688;53.154;18.136;2023-08-20T05:41:43;23.18;;;20.35;;
25868;SDS011;13688;53.154;18.136;2023-08-20T05:47:06;23.32;;;20.82;;
25868;SDS011;13688;53.154;18.136;2023-08-20T05:52:28;23.65;;;21.05;;
25868;SDS011;13688;53.154;18.136;2023-08-20T05:57:52;24.45;;;21.97;;
25868;SDS011;13688;53.154;18.136;2023-08-20T06:03:14;25.55;;;22.75;;
25868;SDS011;13688;53.154;18.136;2023-08-20T06:08:37;25.27;;;22.67;;
25868;SDS011;13688;53.154;18.136;2023-08-20T06:14:01;22.90;;;20.43;;
25868;SDS011;13688;53.154;18.136;2023-08-20T06:19:23;21.75;;;18.70;;
25868;SDS011;13688;53.154;18.136;2023-08-20T06:24:45;21.82;;;19.73;;
25868;SDS011;13688;53.154;18.136;2023-08-20T06:30:08;24.15;;;19.23;;
25868;SDS011;13688;53.154;18.136;2023-08-20T06:35:31;20.05;;;17.95;;
25868;SDS011;13688;53.154;18.136;2023-08-20T06:40:54;19.20;;;17.23;;
25868;SDS011;13688;53.154;18.136;2023-08-20T06:46:16;19.50;;;16.30;;
25868;SDS011;13688;53.154;18.136;2023-08-20T06:51:39;16.85;;;15.05;;
25868;SDS011;13688;53.154;18.136;2023-08-20T06:57:01;18.77;;;14.28;;
25868;SDS011;13688;53.154;18.136;2023-08-20T07:02:24;16.77;;;12.98;;
25868;SDS011;13688;53.154;18.136;2023-08-20T07:07:47;13.55;;;11.93;;
25868;SDS011;13688;53.154;18.136;2023-08-20T07:13:09;12.88;;;11.60;;
25868;SDS011;13688;53.154;18.136;2023-08-20T07:18:32;13.48;;;11.75;;
25868;SDS011;13688;53.154;18.136;2023-08-20T07:23:54;14.25;;;12.68;;
25868;SDS011;13688;53.154;18.136;2023-08-20T07:29:16;12.50;;;10.88;;
25868;SDS011;13688;53.154;18.136;2023-08-20T07:34:39;12.58;;;11.20;;
25868;SDS011;13688;53.154;18.136;2023-08-20T07:40:01;13.22;;;11.93;;
25868;SDS011;13688;53.154;18.136;2023-08-20T07:45:25;13.08;;;11.78;;
25868;SDS011;13688;53.154;18.136;2023-08-20T07:50:48;14.00;;;12.60;;
25868;SDS011;13688;53.154;18.136;2023-08-20T07:56:11;12.65;;;11.40;;
25868;SDS011;13688;53.154;18.136;2023-08-20T08:01:33;13.93;;;12.63;;
25868;SDS011;13688;53.154;18.136;2023-08-20T08:06:56;15.32;;;11.35;;
25868;SDS011;13688;53.154;18.136;2023-08-20T08:12:19;12.15;;;10.88;;
25868;SDS011;13688;53.154;18.136;2023-08-20T08:17:42;11.12;;;10.03;;
25868;SDS011;13688;53.154;18.136;2023-08-20T08:23:04;11.83;;;10.58;;
25868;SDS011;13688;53.154;18.136;2023-08-20T08:33:59;10.60;;;9.50;;
25868;SDS011;13688;53.154;18.136;2023-08-20T08:39:22;11.15;;;9.95;;
25868;SDS011;13688;53.154;18.136;2023-08-20T08:44:44;10.93;;;9.83;;
25868;SDS011;13688;53.154;18.136;2023-08-20T08:50:09;10.63;;;9.63;;
25868;SDS011;13688;53.154;18.136;2023-08-20T08:55:33;12.25;;;9.63;;
25868;SDS011;13688;53.154;18.136;2023-08-20T09:00:56;16.57;;;9.98;;
25868;SDS011;13688;53.154;18.136;2023-08-20T09:06:19;11.03;;;9.95;;
25868;SDS011;13688;53.154;18.136;2023-08-20T09:11:54;11.12;;;9.43;;
25868;SDS011;13688;53.154;18.136;2023-08-20T09:17:26;10.25;;;9.20;;
25868;SDS011;13688;53.154;18.136;2023-08-20T09:28:25;10.15;;;9.05;;
25868;SDS011;13688;53.154;18.136;2023-08-20T09:46:56;12.13;;;8.23;;
25868;SDS011;13688;53.154;18.136;2023-08-20T09:53:01;8.63;;;7.83;;
25868;SDS011;13688;53.154;18.136;2023-08-20T09:58:29;8.70;;;7.80;;
25868;SDS011;13688;53.154;18.136;2023-08-20T10:03:55;8.93;;;7.90;;
25868;SDS011;13688;53.154;18.136;2023-08-20T10:09:20;10.57;;;8.00;;
25868;SDS011;13688;53.154;18.136;2023-08-20T10:14:45;9.40;;;8.50;;
25868;SDS011;13688;53.154;18.136;2023-08-20T10:20:08;9.65;;;8.65;;
25868;SDS011;13688;53.154;18.136;2023-08-20T10:25:31;9.60;;;8.63;;
25868;SDS011;13688;53.154;18.136;2023-08-20T10:31:05;8.93;;;8.13;;
25868;SDS011;13688;53.154;18.136;2023-08-20T10:36:30;10.73;;;8.17;;
25868;SDS011;13688;53.154;18.136;2023-08-20T10:42:09;9.30;;;8.40;;
25868;SDS011;13688;53.154;18.136;2023-08-20T10:47:37;8.73;;;7.80;;
25868;SDS011;13688;53.154;18.136;2023-08-20T10:53:00;9.20;;;8.30;;
25868;SDS011;13688;53.154;18.136;2023-08-20T10:58:26;10.05;;;7.72;;
25868;SDS011;13688;53.154;18.136;2023-08-20T11:03:56;8.75;;;7.72;;
25868;SDS011;13688;53.154;18.136;2023-08-20T11:09:25;9.00;;;7.25;;
25868;SDS011;13688;53.154;18.136;2023-08-20T11:14:46;8.33;;;7.55;;
25868;SDS011;13688;53.154;18.136;2023-08-20T11:20:10;7.92;;;7.22;;
25868;SDS011;13688;53.154;18.136;2023-08-20T11:25:34;7.80;;;7.08;;
25868;SDS011;13688;53.154;18.136;2023-08-20T11:30:58;8.18;;;7.35;;
25868;SDS011;13688;53.154;18.136;2023-08-20T11:36:20;8.13;;;6.87;;
25868;SDS011;13688;53.154;18.136;2023-08-20T11:41:43;8.28;;;7.00;;
25868;SDS011;13688;53.154;18.136;2023-08-20T11:47:14;7.65;;;6.80;;
25868;SDS011;13688;53.154;18.136;2023-08-20T11:52:38;9.05;;;8.15;;
25868;SDS011;13688;53.154;18.136;2023-08-20T11:58:04;7.62;;;6.92;;
25868;SDS011;13688;53.154;18.136;2023-08-20T12:03:29;7.78;;;7.03;;
25868;SDS011;13688;53.154;18.136;2023-08-20T12:08:53;7.72;;;6.97;;
25868;SDS011;13688;53.154;18.136;2023-08-20T12:14:32;7.57;;;6.87;;
25868;SDS011;13688;53.154;18.136;2023-08-20T12:19:54;8.05;;;7.22;;
25868;SDS011;13688;53.154;18.136;2023-08-20T12:25:17;10.95;;;7.60;;
25868;SDS011;13688;53.154;18.136;2023-08-20T12:30:41;7.78;;;6.60;;
25868;SDS011;13688;53.154;18.136;2023-08-20T12:36:04;7.72;;;6.95;;
25868;SDS011;13688;53.154;18.136;2023-08-20T12:41:26;7.87;;;6.65;;
25868;SDS011;13688;53.154;18.136;2023-08-20T12:46:49;7.40;;;6.55;;
25868;SDS011;13688;53.154;18.136;2023-08-20T12:52:11;6.92;;;6.22;;
25868;SDS011;13688;53.154;18.136;2023-08-20T12:57:34;8.13;;;6.92;;
25868;SDS011;13688;53.154;18.136;2023-08-20T13:03:10;8.17;;;7.13;;
25868;SDS011;13688;53.154;18.136;2023-08-20T13:08:34;8.03;;;6.77;;
25868;SDS011;13688;53.154;18.136;2023-08-20T13:13:57;7.30;;;6.67;;
25868;SDS011;13688;53.154;18.136;2023-08-20T13:19:20;8.60;;;6.65;;
25868;SDS011;13688;53.154;18.136;2023-08-20T13:24:47;8.03;;;6.90;;
25868;SDS011;13688;53.154;18.136;2023-08-20T13:30:08;7.28;;;6.58;;
25868;SDS011;13688;53.154;18.136;2023-08-20T13:35:32;9.33;;;6.90;;
25868;SDS011;13688;53.154;18.136;2023-08-20T13:40:56;7.90;;;7.10;;
25868;SDS011;13688;53.154;18.136;2023-08-20T13:46:18;10.78;;;6.70;;
25868;SDS011;13688;53.154;18.136;2023-08-20T13:51:41;7.90;;;6.27;;
25868;SDS011;13688;53.154;18.136;2023-08-20T13:57:04;8.30;;;5.60;;
25868;SDS011;13688;53.154;18.136;2023-08-20T14:02:29;6.53;;;5.60;;
25868;SDS011;13688;53.154;18.136;2023-08-20T14:07:52;5.70;;;5.20;;
25868;SDS011;13688;53.154;18.136;2023-08-20T14:13:15;5.67;;;5.12;;
25868;SDS011;13688;53.154;18.136;2023-08-20T14:18:38;6.65;;;5.90;;
25868;SDS011;13688;53.154;18.136;2023-08-20T14:24:01;10.90;;;7.00;;
25868;SDS011;13688;53.154;18.136;2023-08-20T14:29:25;8.28;;;5.83;;
25868;SDS011;13688;53.154;18.136;2023-08-20T14:34:47;7.67;;;6.62;;
25868;SDS011;13688;53.154;18.136;2023-08-20T14:40:10;9.83;;;6.55;;
25868;SDS011;13688;53.154;18.136;2023-08-20T14:45:33;8.48;;;6.37;;
25868;SDS011;13688;53.154;18.136;2023-08-20T14:50:56;9.80;;;6.85;;
25868;SDS011;13688;53.154;18.136;2023-08-20T14:56:23;10.90;;;7.22;;
25868;SDS011;13688;53.154;18.136;2023-08-20T15:01:46;10.48;;;7.33;;
25868;SDS011;13688;53.154;18.136;2023-08-20T15:07:09;8.15;;;7.35;;
25868;SDS011;13688;53.154;18.136;2023-08-20T15:12:35;10.55;;;6.95;;
25868;SDS011;13688;53.154;18.136;2023-08-20T15:17:59;9.15;;;7.37;;
25868;SDS011;13688;53.154;18.136;2023-08-20T15:23:25;10.45;;;7.85;;
25868;SDS011;13688;53.154;18.136;2023-08-20T15:28:49;10.45;;;8.05;;
25868;SDS011;13688;53.154;18.136;2023-08-20T15:34:11;13.08;;;8.03;;
25868;SDS011;13688;53.154;18.136;2023-08-20T15:39:34;10.48;;;7.67;;
25868;SDS011;13688;53.154;18.136;2023-08-20T15:44:58;7.35;;;5.75;;
25868;SDS011;13688;53.154;18.136;2023-08-20T15:50:34;8.17;;;5.50;;
25868;SDS011;13688;53.154;18.136;2023-08-20T15:55:58;5.90;;;5.10;;
25868;SDS011;13688;53.154;18.136;2023-08-20T16:01:20;8.48;;;5.17;;
25868;SDS011;13688;53.154;18.136;2023-08-20T16:06:45;6.87;;;5.22;;
25868;SDS011;13688;53.154;18.136;2023-08-20T16:12:08;6.72;;;5.45;;
25868;SDS011;13688;53.154;18.136;2023-08-20T16:17:30;5.63;;;5.03;;
25868;SDS011;13688;53.154;18.136;2023-08-20T16:22:56;8.33;;;5.17;;
25868;SDS011;13688;53.154;18.136;2023-08-20T16:28:18;9.90;;;6.92;;
25868;SDS011;13688;53.154;18.136;2023-08-20T16:33:41;5.35;;;4.55;;
25868;SDS011;13688;53.154;18.136;2023-08-20T16:39:04;5.30;;;4.33;;
25868;SDS011;13688;53.154;18.136;2023-08-20T16:44:26;6.00;;;4.03;;
25868;SDS011;13688;53.154;18.136;2023-08-20T16:49:50;5.17;;;3.77;;
25868;SDS011;13688;53.154;18.136;2023-08-20T16:55:13;4.40;;;4.00;;
25868;SDS011;13688;53.154;18.136;2023-08-20T17:00:35;8.33;;;4.05;;
25868;SDS011;13688;53.154;18.136;2023-08-20T17:06:02;6.62;;;3.95;;
25868;SDS011;13688;53.154;18.136;2023-08-20T17:11:25;4.20;;;3.80;;
25868;SDS011;13688;53.154;18.136;2023-08-20T17:16:48;5.72;;;3.45;;
25868;SDS011;13688;53.154;18.136;2023-08-20T17:22:14;5.72;;;3.72;;
25868;SDS011;13688;53.154;18.136;2023-08-20T17:27:39;6.00;;;4.20;;
25868;SDS011;13688;53.154;18.136;2023-08-20T17:33:01;6.78;;;3.95;;
25868;SDS011;13688;53.154;18.136;2023-08-20T17:38:23;4.10;;;3.75;;
25868;SDS011;13688;53.154;18.136;2023-08-20T17:43:46;5.87;;;4.30;;
25868;SDS011;13688;53.154;18.136;2023-08-20T17:49:09;5.40;;;4.37;;
25868;SDS011;13688;53.154;18.136;2023-08-20T17:54:32;5.05;;;4.45;;
25868;SDS011;13688;53.154;18.136;2023-08-20T17:59:55;5.28;;;4.28;;
25868;SDS011;13688;53.154;18.136;2023-08-20T18:05:20;6.47;;;4.70;;
25868;SDS011;13688;53.154;18.136;2023-08-20T18:10:43;7.15;;;5.33;;
25868;SDS011;13688;53.154;18.136;2023-08-20T18:16:05;14.98;;;11.30;;
25868;SDS011;13688;53.154;18.136;2023-08-20T18:21:28;9.23;;;6.95;;
25868;SDS011;13688;53.154;18.136;2023-08-20T18:26:51;8.90;;;6.33;;
25868;SDS011;13688;53.154;18.136;2023-08-20T18:32:13;7.80;;;5.87;;
25868;SDS011;13688;53.154;18.136;2023-08-20T18:37:37;9.55;;;6.03;;
25868;SDS011;13688;53.154;18.136;2023-08-20T18:43:00;7.92;;;5.25;;
25868;SDS011;13688;53.154;18.136;2023-08-20T18:48:22;10.38;;;5.28;;
25868;SDS011;13688;53.154;18.136;2023-08-20T18:53:46;6.25;;;4.37;;
25868;SDS011;13688;53.154;18.136;2023-08-20T18:59:08;7.95;;;6.30;;
25868;SDS011;13688;53.154;18.136;2023-08-20T19:04:30;8.10;;;5.50;;
25868;SDS011;13688;53.154;18.136;2023-08-20T19:09:55;9.75;;;5.20;;
25868;SDS011;13688;53.154;18.136;2023-08-20T19:15:18;7.50;;;5.72;;
25868;SDS011;13688;53.154;18.136;2023-08-20T19:20:44;9.28;;;6.80;;
25868;SDS011;13688;53.154;18.136;2023-08-20T19:26:08;10.00;;;5.62;;
25868;SDS011;13688;53.154;18.136;2023-08-20T19:31:31;6.67;;;5.60;;
25868;SDS011;13688;53.154;18.136;2023-08-20T19:36:53;7.58;;;5.20;;
25868;SDS011;13688;53.154;18.136;2023-08-20T19:42:20;7.70;;;5.90;;
25868;SDS011;13688;53.154;18.136;2023-08-20T19:47:42;7.08;;;5.28;;
25868;SDS011;13688;53.154;18.136;2023-08-20T19:53:05;7.67;;;5.62;;
25868;SDS011;13688;53.154;18.136;2023-08-20T19:58:27;8.35;;;5.60;;
25868;SDS011;13688;53.154;18.136;2023-08-20T20:03:51;8.68;;;6.05;;
25868;SDS011;13688;53.154;18.136;2023-08-20T20:09:13;10.17;;;6.43;;
25868;SDS011;13688;53.154;18.136;2023-08-20T20:14:36;7.40;;;6.20;;
25868;SDS011;13688;53.154;18.136;2023-08-20T20:19:58;7.30;;;6.60;;
25868;SDS011;13688;53.154;18.136;2023-08-20T20:25:23;8.55;;;6.83;;
25868;SDS011;13688;53.154;18.136;2023-08-20T20:30:46;6.90;;;6.20;;
25868;SDS011;13688;53.154;18.136;2023-08-20T20:36:09;7.33;;;6.62;;
25868;SDS011;13688;53.154;18.136;2023-08-20T20:41:32;9.28;;;6.15;;
25868;SDS011;13688;53.154;18.136;2023-08-20T20:46:55;9.88;;;6.50;;
25868;SDS011;13688;53.154;18.136;2023-08-20T20:52:18;7.65;;;6.62;;
25868;SDS011;13688;53.154;18.136;2023-08-20T20:57:41;7.35;;;6.40;;
25868;SDS011;13688;53.154;18.136;2023-08-20T21:03:04;7.58;;;6.35;;
25868;SDS011;13688;53.154;18.136;2023-08-20T21:08:26;10.15;;;6.60;;
25868;SDS011;13688;53.154;18.136;2023-08-20T21:13:49;9.10;;;6.37;;
25868;SDS011;13688;53.154;18.136;2023-08-20T21:19:12;7.17;;;6.47;;
25868;SDS011;13688;53.154;18.136;2023-08-20T21:24:35;7.22;;;6.37;;
25868;SDS011;13688;53.154;18.136;2023-08-20T21:29:59;7.35;;;6.65;;
25868;SDS011;13688;53.154;18.136;2023-08-20T21:35:23;7.45;;;6.62;;
25868;SDS011;13688;53.154;18.136;2023-08-20T21:40:46;10.43;;;6.75;;
25868;SDS011;13688;53.154;18.136;2023-08-20T21:46:08;7.97;;;7.08;;
25868;SDS011;13688;53.154;18.136;2023-08-20T21:51:32;8.18;;;7.33;;
25868;SDS011;13688;53.154;18.136;2023-08-20T21:56:55;7.73;;;6.93;;
25868;SDS011;13688;53.154;18.136;2023-08-20T22:02:20;7.25;;;6.40;;
25868;SDS011;13688;53.154;18.136;2023-08-20T22:07:44;7.80;;;7.00;;
25868;SDS011;13688;53.154;18.136;2023-08-20T22:13:08;8.23;;;7.30;;
25868;SDS011;13688;53.154;18.136;2023-08-20T22:18:32;8.03;;;7.22;;
25868;SDS011;13688;53.154;18.136;2023-08-20T22:23:55;7.55;;;6.80;;
25868;SDS011;13688;53.154;18.136;2023-08-20T22:29:19;8.48;;;7.05;;
25868;SDS011;13688;53.154;18.136;2023-08-20T22:34:42;7.05;;;6.35;;
25868;SDS011;13688;53.154;18.136;2023-08-20T22:40:06;7.10;;;6.40;;
25868;SDS011;13688;53.154;18.136;2023-08-20T22:45:29;8.33;;;6.50;;
25868;SDS011;13688;53.154;18.136;2023-08-20T22:50:54;8.85;;;6.67;;
25868;SDS011;13688;53.154;18.136;2023-08-20T22:56:17;7.83;;;6.35;;
25868;SDS011;13688;53.154;18.136;2023-08-20T23:01:41;9.83;;;7.05;;
25868;SDS011;13688;53.154;18.136;2023-08-20T23:07:03;7.75;;;6.95;;
25868;SDS011;13688;53.154;18.136;2023-08-20T23:12:26;11.22;;;7.42;;
25868;SDS011;13688;53.154;18.136;2023-08-20T23:17:49;7.85;;;7.10;;
25868;SDS011;13688;53.154;18.136;2023-08-20T23:23:12;8.73;;;7.47;;
25868;SDS011;13688;53.154;18.136;2023-08-20T23:28:36;7.97;;;6.90;;
25868;SDS011;13688;53.154;18.136;2023-08-20T23:34:00;8.20;;;7.40;;
25868;SDS011;13688;53.154;18.136;2023-08-20T23:39:22;8.30;;;7.50;;
25868;SDS011;13688;53.154;18.136;2023-08-20T23:44:48;8.73;;;7.83;;
25868;SDS011;13688;53.154;18.136;2023-08-20T23:50:11;8.80;;;7.90;;
25868;SDS011;13688;53.154;18.136;2023-08-20T23:55:34;9.68;;;8.20;;
